sensor_id;sensor_type;location;lat;lon;timestamp;P1;P2;P0
54021;PMS7003;39936;51.058;17.220;2023-01-23T00:01:30;56;41;24
54021;PMS7003;39936;51.058;17.220;2023-01-23T00:04:45;59;43;25
54021;PMS7003;39936;51.058;17.220;2023-01-23T00:07:58;56;42;26
54021;PMS7003;39936;51.058;17.220;2023-01-23T00:11:06;59;43;26
54021;PMS7003;39936;51.058;17.220;2023-01-23T00:14:47;62;45;26
54021;PMS7003;39936;51.058;17.220;2023-01-23T00:18:10;54;44;28
54021;PMS7003;39936;51.058;17.220;2023-01-23T00:21:38;65;46;27
54021;PMS7003;39936;51.058;17.220;2023-01-23T00:24:57;67;50;30
54021;PMS7003;39936;51.058;17.220;2023-01-23T00:28:07;63;45;24
54021;PMS7003;39936;51.058;17.220;2023-01-23T00:31:31;59;43;24
54021;PMS7003;39936;51.058;17.220;2023-01-23T00:34:39;52;41;21
54021;PMS7003;39936;51.058;17.220;2023-01-23T00:37:50;59;43;24
54021;PMS7003;39936;51.058;17.220;2023-01-23T00:41:17;62;47;27
54021;PMS7003;39936;51.058;17.220;2023-01-23T00:44:28;56;42;22
54021;PMS7003;39936;51.058;17.220;2023-01-23T00:47:38;54;42;25
54021;PMS7003;39936;51.058;17.220;2023-01-23T00:51:01;53;40;25
54021;PMS7003;39936;51.058;17.220;2023-01-23T00:54:10;61;46;28
54021;PMS7003;39936;51.058;17.220;2023-01-23T00:57:22;65;49;29
54021;PMS7003;39936;51.058;17.220;2023-01-23T01:00:39;53;39;23
54021;PMS7003;39936;51.058;17.220;2023-01-23T01:04:27;56;42;24
54021;PMS7003;39936;51.058;17.220;2023-01-23T01:07:47;53;37;19
54021;PMS7003;39936;51.058;17.220;2023-01-23T01:11:02;56;41;24
54021;PMS7003;39936;51.058;17.220;2023-01-23T01:14:11;63;46;26
54021;PMS7003;39936;51.058;17.220;2023-01-23T01:17:35;53;38;22
54021;PMS7003;39936;51.058;17.220;2023-01-23T01:20:51;59;44;25
54021;PMS7003;39936;51.058;17.220;2023-01-23T01:24:16;51;41;24
54021;PMS7003;39936;51.058;17.220;2023-01-23T01:27:33;62;44;24
54021;PMS7003;39936;51.058;17.220;2023-01-23T01:30:38;50;39;24
54021;PMS7003;39936;51.058;17.220;2023-01-23T01:34:06;43;31;14
54021;PMS7003;39936;51.058;17.220;2023-01-23T01:37:17;64;45;27
54021;PMS7003;39936;51.058;17.220;2023-01-23T01:40:35;53;41;23
54021;PMS7003;39936;51.058;17.220;2023-01-23T01:43:49;55;43;26
54021;PMS7003;39936;51.058;17.220;2023-01-23T01:47:05;50;40;24
54021;PMS7003;39936;51.058;17.220;2023-01-23T01:50:28;56;42;21
54021;PMS7003;39936;51.058;17.220;2023-01-23T01:57:18;57;41;22
54021;PMS7003;39936;51.058;17.220;2023-01-23T02:00:34;56;39;22
54021;PMS7003;39936;51.058;17.220;2023-01-23T02:03:43;58;44;26
54021;PMS7003;39936;51.058;17.220;2023-01-23T02:07:08;53;41;26
54021;PMS7003;39936;51.058;17.220;2023-01-23T02:10:41;53;39;22
54021;PMS7003;39936;51.058;17.220;2023-01-23T02:13:53;59;43;27
54021;PMS7003;39936;51.058;17.220;2023-01-23T02:17:02;50;38;24
54021;PMS7003;39936;51.058;17.220;2023-01-23T02:20:44;61;40;25
54021;PMS7003;39936;51.058;17.220;2023-01-23T02:27:17;56;42;23
54021;PMS7003;39936;51.058;17.220;2023-01-23T02:30:29;58;42;22
54021;PMS7003;39936;51.058;17.220;2023-01-23T02:33:56;61;47;25
54021;PMS7003;39936;51.058;17.220;2023-01-23T02:37:26;63;46;26
54021;PMS7003;39936;51.058;17.220;2023-01-23T02:40:46;53;37;20
54021;PMS7003;39936;51.058;17.220;2023-01-23T02:44:41;61;45;28
54021;PMS7003;39936;51.058;17.220;2023-01-23T02:47:52;60;40;21
54021;PMS7003;39936;51.058;17.220;2023-01-23T02:51:05;56;43;26
54021;PMS7003;39936;51.058;17.220;2023-01-23T02:54:20;68;45;25
54021;PMS7003;39936;51.058;17.220;2023-01-23T02:57:49;62;46;28
54021;PMS7003;39936;51.058;17.220;2023-01-23T03:01:11;62;49;28
54021;PMS7003;39936;51.058;17.220;2023-01-23T03:04:21;55;41;23
54021;PMS7003;39936;51.058;17.220;2023-01-23T03:07:59;57;38;24
54021;PMS7003;39936;51.058;17.220;2023-01-23T03:11:09;60;44;26
54021;PMS7003;39936;51.058;17.220;2023-01-23T03:14:28;53;41;23
54021;PMS7003;39936;51.058;17.220;2023-01-23T03:17:40;63;44;26
54021;PMS7003;39936;51.058;17.220;2023-01-23T03:20:48;56;42;25
54021;PMS7003;39936;51.058;17.220;2023-01-23T03:24:11;54;42;27
54021;PMS7003;39936;51.058;17.220;2023-01-23T03:27:25;54;40;24
54021;PMS7003;39936;51.058;17.220;2023-01-23T03:30:37;58;43;26
54021;PMS7003;39936;51.058;17.220;2023-01-23T03:34:04;61;44;25
54021;PMS7003;39936;51.058;17.220;2023-01-23T03:37:12;54;36;22
54021;PMS7003;39936;51.058;17.220;2023-01-23T03:40:35;51;39;22
54021;PMS7003;39936;51.058;17.220;2023-01-23T03:44:23;57;43;23
54021;PMS7003;39936;51.058;17.220;2023-01-23T03:47:34;43;32;21
54021;PMS7003;39936;51.058;17.220;2023-01-23T03:50:51;57;41;22
54021;PMS7003;39936;51.058;17.220;2023-01-23T03:54:06;52;39;23
54021;PMS7003;39936;51.058;17.220;2023-01-23T03:57:53;57;45;25
54021;PMS7003;39936;51.058;17.220;2023-01-23T04:01:08;57;41;22
54021;PMS7003;39936;51.058;17.220;2023-01-23T04:04:26;60;42;25
54021;PMS7003;39936;51.058;17.220;2023-01-23T04:07:42;53;39;24
54021;PMS7003;39936;51.058;17.220;2023-01-23T04:14:37;53;39;21
54021;PMS7003;39936;51.058;17.220;2023-01-23T04:17:49;56;41;25
54021;PMS7003;39936;51.058;17.220;2023-01-23T04:21:30;64;46;29
54021;PMS7003;39936;51.058;17.220;2023-01-23T04:24:36;54;38;24
54021;PMS7003;39936;51.058;17.220;2023-01-23T04:27:58;54;39;24
54021;PMS7003;39936;51.058;17.220;2023-01-23T04:31:09;61;43;25
54021;PMS7003;39936;51.058;17.220;2023-01-23T04:34:17;56;41;24
54021;PMS7003;39936;51.058;17.220;2023-01-23T04:37:19;56;44;26
54021;PMS7003;39936;51.058;17.220;2023-01-23T04:40:43;55;41;26
54021;PMS7003;39936;51.058;17.220;2023-01-23T04:43:50;54;41;24
54021;PMS7003;39936;51.058;17.220;2023-01-23T04:47:12;54;37;19
54021;PMS7003;39936;51.058;17.220;2023-01-23T04:50:28;57;41;22
54021;PMS7003;39936;51.058;17.220;2023-01-23T04:53:51;59;42;23
54021;PMS7003;39936;51.058;17.220;2023-01-23T04:57:03;54;40;23
54021;PMS7003;39936;51.058;17.220;2023-01-23T05:00:11;45;34;21
54021;PMS7003;39936;51.058;17.220;2023-01-23T05:03:57;52;40;22
54021;PMS7003;39936;51.058;17.220;2023-01-23T05:07:06;57;42;23
54021;PMS7003;39936;51.058;17.220;2023-01-23T05:11:01;60;45;25
54021;PMS7003;39936;51.058;17.220;2023-01-23T05:14:10;48;37;20
54021;PMS7003;39936;51.058;17.220;2023-01-23T05:17:25;49;39;22
54021;PMS7003;39936;51.058;17.220;2023-01-23T05:20:46;61;45;26
54021;PMS7003;39936;51.058;17.220;2023-01-23T05:24:05;63;43;26
54021;PMS7003;39936;51.058;17.220;2023-01-23T05:27:30;51;38;22
54021;PMS7003;39936;51.058;17.220;2023-01-23T05:30:39;50;35;20
54021;PMS7003;39936;51.058;17.220;2023-01-23T05:33:56;55;40;25
54021;PMS7003;39936;51.058;17.220;2023-01-23T05:37:23;53;39;23
54021;PMS7003;39936;51.058;17.220;2023-01-23T05:40:35;52;37;20
54021;PMS7003;39936;51.058;17.220;2023-01-23T05:44:03;52;41;25
54021;PMS7003;39936;51.058;17.220;2023-01-23T05:47:21;57;42;24
54021;PMS7003;39936;51.058;17.220;2023-01-23T05:50:33;57;40;23
54021;PMS7003;39936;51.058;17.220;2023-01-23T05:53:45;56;39;22
54021;PMS7003;39936;51.058;17.220;2023-01-23T05:57:29;62;45;26
54021;PMS7003;39936;51.058;17.220;2023-01-23T06:01:06;59;43;26
54021;PMS7003;39936;51.058;17.220;2023-01-23T06:04:22;58;43;24
54021;PMS7003;39936;51.058;17.220;2023-01-23T06:07:31;58;43;25
54021;PMS7003;39936;51.058;17.220;2023-01-23T06:10:44;57;43;26
54021;PMS7003;39936;51.058;17.220;2023-01-23T06:13:57;56;41;23
54021;PMS7003;39936;51.058;17.220;2023-01-23T06:17:24;57;41;23
54021;PMS7003;39936;51.058;17.220;2023-01-23T06:20:36;57;43;25
54021;PMS7003;39936;51.058;17.220;2023-01-23T06:24:06;56;40;24
54021;PMS7003;39936;51.058;17.220;2023-01-23T06:27:21;63;48;27
54021;PMS7003;39936;51.058;17.220;2023-01-23T06:31:03;69;47;29
54021;PMS7003;39936;51.058;17.220;2023-01-23T06:34:19;61;45;27
54021;PMS7003;39936;51.058;17.220;2023-01-23T06:37:23;63;48;29
54021;PMS7003;39936;51.058;17.220;2023-01-23T06:40:49;59;44;26
54021;PMS7003;39936;51.058;17.220;2023-01-23T06:44:11;61;45;26
54021;PMS7003;39936;51.058;17.220;2023-01-23T06:47:18;56;43;25
54021;PMS7003;39936;51.058;17.220;2023-01-23T06:50:37;53;38;24
54021;PMS7003;39936;51.058;17.220;2023-01-23T06:53:49;58;44;25
54021;PMS7003;39936;51.058;17.220;2023-01-23T06:57:00;64;47;27
54021;PMS7003;39936;51.058;17.220;2023-01-23T07:00:09;53;35;21
54021;PMS7003;39936;51.058;17.220;2023-01-23T07:03:40;59;43;26
54021;PMS7003;39936;51.058;17.220;2023-01-23T07:06:56;68;46;26
54021;PMS7003;39936;51.058;17.220;2023-01-23T07:10:15;60;42;26
54021;PMS7003;39936;51.058;17.220;2023-01-23T07:13:28;54;41;22
54021;PMS7003;39936;51.058;17.220;2023-01-23T07:17:17;58;43;26
54021;PMS7003;39936;51.058;17.220;2023-01-23T07:20:33;57;40;23
54021;PMS7003;39936;51.058;17.220;2023-01-23T07:23:46;56;42;25
54021;PMS7003;39936;51.058;17.220;2023-01-23T07:27:45;59;45;27
54021;PMS7003;39936;51.058;17.220;2023-01-23T07:30:58;56;41;24
54021;PMS7003;39936;51.058;17.220;2023-01-23T07:37:46;49;42;26
54021;PMS7003;39936;51.058;17.220;2023-01-23T07:40:56;57;38;23
54021;PMS7003;39936;51.058;17.220;2023-01-23T07:44:20;52;39;25
54021;PMS7003;39936;51.058;17.220;2023-01-23T07:47:40;56;43;22
54021;PMS7003;39936;51.058;17.220;2023-01-23T07:51:00;58;44;27
54021;PMS7003;39936;51.058;17.220;2023-01-23T07:54:40;59;45;28
54021;PMS7003;39936;51.058;17.220;2023-01-23T07:57:52;60;44;29
54021;PMS7003;39936;51.058;17.220;2023-01-23T08:01:07;62;47;29
54021;PMS7003;39936;51.058;17.220;2023-01-23T08:04:24;63;45;26
54021;PMS7003;39936;51.058;17.220;2023-01-23T08:08:21;68;48;29
54021;PMS7003;39936;51.058;17.220;2023-01-23T08:11:46;62;46;27
54021;PMS7003;39936;51.058;17.220;2023-01-23T08:15:01;62;48;27
54021;PMS7003;39936;51.058;17.220;2023-01-23T08:18:51;65;47;28
54021;PMS7003;39936;51.058;17.220;2023-01-23T08:22:09;64;44;25
54021;PMS7003;39936;51.058;17.220;2023-01-23T08:25:22;56;42;24
54021;PMS7003;39936;51.058;17.220;2023-01-23T08:28:55;64;47;26
54021;PMS7003;39936;51.058;17.220;2023-01-23T08:32:10;60;44;26
54021;PMS7003;39936;51.058;17.220;2023-01-23T08:35:55;65;48;29
54021;PMS7003;39936;51.058;17.220;2023-01-23T08:39:26;65;46;28
54021;PMS7003;39936;51.058;17.220;2023-01-23T08:43:20;66;50;30
54021;PMS7003;39936;51.058;17.220;2023-01-23T08:46:34;52;43;27
54021;PMS7003;39936;51.058;17.220;2023-01-23T08:50:16;64;44;27
54021;PMS7003;39936;51.058;17.220;2023-01-23T08:53:24;59;42;26
54021;PMS7003;39936;51.058;17.220;2023-01-23T08:57:04;60;44;27
54021;PMS7003;39936;51.058;17.220;2023-01-23T09:00:16;65;48;29
54021;PMS7003;39936;51.058;17.220;2023-01-23T09:03:31;60;43;27
54021;PMS7003;39936;51.058;17.220;2023-01-23T09:07:00;60;45;27
54021;PMS7003;39936;51.058;17.220;2023-01-23T09:10:18;61;43;26
54021;PMS7003;39936;51.058;17.220;2023-01-23T09:13:30;53;40;24
54021;PMS7003;39936;51.058;17.220;2023-01-23T09:16:58;56;45;30
54021;PMS7003;39936;51.058;17.220;2023-01-23T09:20:04;49;37;22
54021;PMS7003;39936;51.058;17.220;2023-01-23T09:23:19;60;47;27
54021;PMS7003;39936;51.058;17.220;2023-01-23T09:26:31;61;48;29
54021;PMS7003;39936;51.058;17.220;2023-01-23T09:29:37;53;41;26
54021;PMS7003;39936;51.058;17.220;2023-01-23T09:33:14;52;41;23
54021;PMS7003;39936;51.058;17.220;2023-01-23T09:36:28;54;40;23
54021;PMS7003;39936;51.058;17.220;2023-01-23T09:39:41;39;29;17
54021;PMS7003;39936;51.058;17.220;2023-01-23T09:43:07;55;42;25
54021;PMS7003;39936;51.058;17.220;2023-01-23T09:46:47;64;48;29
54021;PMS7003;39936;51.058;17.220;2023-01-23T09:50:00;50;39;24
54021;PMS7003;39936;51.058;17.220;2023-01-23T09:53:19;60;44;28
54021;PMS7003;39936;51.058;17.220;2023-01-23T09:56:36;49;40;25
54021;PMS7003;39936;51.058;17.220;2023-01-23T10:03:29;45;35;21
54021;PMS7003;39936;51.058;17.220;2023-01-23T10:20:43;53;41;25
54021;PMS7003;39936;51.058;17.220;2023-01-23T10:30:50;53;42;26
54021;PMS7003;39936;51.058;17.220;2023-01-23T10:34:45;62;48;29
54021;PMS7003;39936;51.058;17.220;2023-01-23T10:41:15;49;38;22
54021;PMS7003;39936;51.058;17.220;2023-01-23T10:44:28;54;42;25
54021;PMS7003;39936;51.058;17.220;2023-01-23T10:47:36;51;38;20
54021;PMS7003;39936;51.058;17.220;2023-01-23T10:58:38;71;45;27
54021;PMS7003;39936;51.058;17.220;2023-01-23T11:01:57;57;45;27
54021;PMS7003;39936;51.058;17.220;2023-01-23T11:08:34;51;38;22
54021;PMS7003;39936;51.058;17.220;2023-01-23T11:12:28;61;47;28
54021;PMS7003;39936;51.058;17.220;2023-01-23T11:15:45;52;40;23
54021;PMS7003;39936;51.058;17.220;2023-01-23T11:19:17;51;42;24
54021;PMS7003;39936;51.058;17.220;2023-01-23T11:22:38;58;44;27
54021;PMS7003;39936;51.058;17.220;2023-01-23T11:25:49;51;37;23
54021;PMS7003;39936;51.058;17.220;2023-01-23T11:28:58;45;34;19
54021;PMS7003;39936;51.058;17.220;2023-01-23T11:32:45;54;40;23
54021;PMS7003;39936;51.058;17.220;2023-01-23T11:39:28;53;41;25
54021;PMS7003;39936;51.058;17.220;2023-01-23T11:42:47;50;41;22
54021;PMS7003;39936;51.058;17.220;2023-01-23T11:56:23;50;39;23
54021;PMS7003;39936;51.058;17.220;2023-01-23T11:59:42;52;42;25
54021;PMS7003;39936;51.058;17.220;2023-01-23T12:03:02;52;41;26
54021;PMS7003;39936;51.058;17.220;2023-01-23T12:25:44;63;48;27
54021;PMS7003;39936;51.058;17.220;2023-01-23T12:35:46;63;49;31
54021;PMS7003;39936;51.058;17.220;2023-01-23T12:46:45;66;49;31
54021;PMS7003;39936;51.058;17.220;2023-01-23T12:49:59;67;47;27
54021;PMS7003;39936;51.058;17.220;2023-01-23T12:53:41;56;43;27
54021;PMS7003;39936;51.058;17.220;2023-01-23T12:56:55;62;47;27
54021;PMS7003;39936;51.058;17.220;2023-01-23T13:08:05;68;50;31
54021;PMS7003;39936;51.058;17.220;2023-01-23T13:15:38;68;46;28
54021;PMS7003;39936;51.058;17.220;2023-01-23T13:23:17;64;48;29
54021;PMS7003;39936;51.058;17.220;2023-01-23T13:29:46;60;47;27
54021;PMS7003;39936;51.058;17.220;2023-01-23T13:32:58;59;44;26
54021;PMS7003;39936;51.058;17.220;2023-01-23T13:36:45;65;50;28
54021;PMS7003;39936;51.058;17.220;2023-01-23T13:40:23;64;48;30
54021;PMS7003;39936;51.058;17.220;2023-01-23T13:47:20;62;50;29
54021;PMS7003;39936;51.058;17.220;2023-01-23T13:51:22;62;45;27
54021;PMS7003;39936;51.058;17.220;2023-01-23T13:54:29;59;44;26
54021;PMS7003;39936;51.058;17.220;2023-01-23T13:57:50;69;48;28
54021;PMS7003;39936;51.058;17.220;2023-01-23T14:05:07;67;51;30
54021;PMS7003;39936;51.058;17.220;2023-01-23T14:08:27;71;48;31
54021;PMS7003;39936;51.058;17.220;2023-01-23T14:11:38;68;50;30
54021;PMS7003;39936;51.058;17.220;2023-01-23T14:14:57;77;57;33
54021;PMS7003;39936;51.058;17.220;2023-01-23T14:18:17;71;50;31
54021;PMS7003;39936;51.058;17.220;2023-01-23T14:21:48;75;55;31
54021;PMS7003;39936;51.058;17.220;2023-01-23T14:28:26;75;51;32
54021;PMS7003;39936;51.058;17.220;2023-01-23T14:31:40;69;49;30
54021;PMS7003;39936;51.058;17.220;2023-01-23T14:35:23;71;55;32
54021;PMS7003;39936;51.058;17.220;2023-01-23T14:38:35;67;49;31
54021;PMS7003;39936;51.058;17.220;2023-01-23T14:41:45;65;47;29
54021;PMS7003;39936;51.058;17.220;2023-01-23T14:44:57;69;54;31
54021;PMS7003;39936;51.058;17.220;2023-01-23T14:48:07;65;49;30
54021;PMS7003;39936;51.058;17.220;2023-01-23T14:51:25;72;52;30
54021;PMS7003;39936;51.058;17.220;2023-01-23T14:54:36;67;48;31
54021;PMS7003;39936;51.058;17.220;2023-01-23T14:57:55;69;50;30
54021;PMS7003;39936;51.058;17.220;2023-01-23T15:01:13;67;51;31
54021;PMS7003;39936;51.058;17.220;2023-01-23T15:04:25;64;46;26
54021;PMS7003;39936;51.058;17.220;2023-01-23T15:10:57;64;47;30
54021;PMS7003;39936;51.058;17.220;2023-01-23T15:14:34;63;50;29
54021;PMS7003;39936;51.058;17.220;2023-01-23T15:17:41;64;50;31
54021;PMS7003;39936;51.058;17.220;2023-01-23T15:21:08;69;51;31
54021;PMS7003;39936;51.058;17.220;2023-01-23T15:24:50;80;60;36
54021;PMS7003;39936;51.058;17.220;2023-01-23T15:31:50;70;51;32
54021;PMS7003;39936;51.058;17.220;2023-01-23T15:35:11;61;50;31
54021;PMS7003;39936;51.058;17.220;2023-01-23T15:42:33;69;50;30
54021;PMS7003;39936;51.058;17.220;2023-01-23T15:45:57;73;52;29
54021;PMS7003;39936;51.058;17.220;2023-01-23T15:49:08;69;50;30
54021;PMS7003;39936;51.058;17.220;2023-01-23T15:52:16;70;52;33
54021;PMS7003;39936;51.058;17.220;2023-01-23T15:55:31;74;53;29
54021;PMS7003;39936;51.058;17.220;2023-01-23T15:58:41;67;50;29
54021;PMS7003;39936;51.058;17.220;2023-01-23T16:01:48;74;51;31
54021;PMS7003;39936;51.058;17.220;2023-01-23T16:04:56;71;51;29
54021;PMS7003;39936;51.058;17.220;2023-01-23T16:08:21;62;46;29
54021;PMS7003;39936;51.058;17.220;2023-01-23T16:11:41;71;49;30
54021;PMS7003;39936;51.058;17.220;2023-01-23T16:14:57;60;44;28
54021;PMS7003;39936;51.058;17.220;2023-01-23T16:18:38;71;53;31
54021;PMS7003;39936;51.058;17.220;2023-01-23T16:22:26;64;49;30
54021;PMS7003;39936;51.058;17.220;2023-01-23T16:25:38;60;46;28
54021;PMS7003;39936;51.058;17.220;2023-01-23T16:32:35;66;46;26
54021;PMS7003;39936;51.058;17.220;2023-01-23T16:35:40;58;42;27
54021;PMS7003;39936;51.058;17.220;2023-01-23T16:39:17;56;44;26
54021;PMS7003;39936;51.058;17.220;2023-01-23T16:42:28;56;42;26
54021;PMS7003;39936;51.058;17.220;2023-01-23T16:45:42;58;46;29
54021;PMS7003;39936;51.058;17.220;2023-01-23T16:48:57;56;43;25
54021;PMS7003;39936;51.058;17.220;2023-01-23T16:52:09;55;42;25
54021;PMS7003;39936;51.058;17.220;2023-01-23T16:55:24;71;50;30
54021;PMS7003;39936;51.058;17.220;2023-01-23T16:58:44;71;51;29
54021;PMS7003;39936;51.058;17.220;2023-01-23T17:01:51;64;47;27
54021;PMS7003;39936;51.058;17.220;2023-01-23T17:05:00;63;48;28
54021;PMS7003;39936;51.058;17.220;2023-01-23T17:11:36;61;44;26
54021;PMS7003;39936;51.058;17.220;2023-01-23T17:14:51;66;47;28
54021;PMS7003;39936;51.058;17.220;2023-01-23T17:18:05;64;46;27
54021;PMS7003;39936;51.058;17.220;2023-01-23T17:21:20;58;44;26
54021;PMS7003;39936;51.058;17.220;2023-01-23T17:24:28;65;47;26
54021;PMS7003;39936;51.058;17.220;2023-01-23T17:27:40;66;46;27
54021;PMS7003;39936;51.058;17.220;2023-01-23T17:30:49;66;47;25
54021;PMS7003;39936;51.058;17.220;2023-01-23T17:34:35;65;46;27
54021;PMS7003;39936;51.058;17.220;2023-01-23T17:37:58;66;49;29
54021;PMS7003;39936;51.058;17.220;2023-01-23T17:46:25;71;53;32
54021;PMS7003;39936;51.058;17.220;2023-01-23T17:49:42;70;48;30
54021;PMS7003;39936;51.058;17.220;2023-01-23T17:52:59;65;49;31
54021;PMS7003;39936;51.058;17.220;2023-01-23T18:00:20;70;52;31
54021;PMS7003;39936;51.058;17.220;2023-01-23T18:16:57;81;57;35
54021;PMS7003;39936;51.058;17.220;2023-01-23T18:20:58;69;50;30
54021;PMS7003;39936;51.058;17.220;2023-01-23T18:27:40;77;57;33
54021;PMS7003;39936;51.058;17.220;2023-01-23T18:45:21;68;52;32
54021;PMS7003;39936;51.058;17.220;2023-01-23T18:48:33;81;56;33
54021;PMS7003;39936;51.058;17.220;2023-01-23T18:51:44;75;56;34
54021;PMS7003;39936;51.058;17.220;2023-01-23T18:55:37;81;56;35
54021;PMS7003;39936;51.058;17.220;2023-01-23T19:06:24;80;59;34
54021;PMS7003;39936;51.058;17.220;2023-01-23T19:10:00;81;61;37
54021;PMS7003;39936;51.058;17.220;2023-01-23T19:13:43;78;58;34
54021;PMS7003;39936;51.058;17.220;2023-01-23T19:17:42;66;49;29
54021;PMS7003;39936;51.058;17.220;2023-01-23T19:25:09;71;53;32
54021;PMS7003;39936;51.058;17.220;2023-01-23T19:28:45;66;50;29
54021;PMS7003;39936;51.058;17.220;2023-01-23T19:32:11;75;55;33
54021;PMS7003;39936;51.058;17.220;2023-01-23T19:35:29;70;50;31
54021;PMS7003;39936;51.058;17.220;2023-01-23T19:39:19;60;46;28
54021;PMS7003;39936;51.058;17.220;2023-01-23T19:43:05;77;56;33
54021;PMS7003;39936;51.058;17.220;2023-01-23T19:46:58;70;51;30
54021;PMS7003;39936;51.058;17.220;2023-01-23T19:50:17;68;53;32
54021;PMS7003;39936;51.058;17.220;2023-01-23T19:53:38;60;45;27
54021;PMS7003;39936;51.058;17.220;2023-01-23T19:57:15;67;49;29
54021;PMS7003;39936;51.058;17.220;2023-01-23T20:00:32;64;48;28
54021;PMS7003;39936;51.058;17.220;2023-01-23T20:04:15;66;50;31
54021;PMS7003;39936;51.058;17.220;2023-01-23T20:07:40;64;48;29
54021;PMS7003;39936;51.058;17.220;2023-01-23T20:10:50;76;52;32
54021;PMS7003;39936;51.058;17.220;2023-01-23T20:14:02;67;51;31
54021;PMS7003;39936;51.058;17.220;2023-01-23T20:17:13;66;48;27
54021;PMS7003;39936;51.058;17.220;2023-01-23T20:21:14;67;50;29
54021;PMS7003;39936;51.058;17.220;2023-01-23T20:24:27;68;51;28
54021;PMS7003;39936;51.058;17.220;2023-01-23T20:27:41;67;48;30
54021;PMS7003;39936;51.058;17.220;2023-01-23T20:31:21;67;50;31
54021;PMS7003;39936;51.058;17.220;2023-01-23T20:35:06;75;53;33
54021;PMS7003;39936;51.058;17.220;2023-01-23T20:38:45;75;54;32
54021;PMS7003;39936;51.058;17.220;2023-01-23T20:42:06;69;50;30
54021;PMS7003;39936;51.058;17.220;2023-01-23T20:45:13;67;51;30
54021;PMS7003;39936;51.058;17.220;2023-01-23T20:48:20;71;53;35
54021;PMS7003;39936;51.058;17.220;2023-01-23T20:51:56;68;46;22
54021;PMS7003;39936;51.058;17.220;2023-01-23T20:55:54;67;51;29
54021;PMS7003;39936;51.058;17.220;2023-01-23T20:59:04;69;48;27
54021;PMS7003;39936;51.058;17.220;2023-01-23T21:02:37;61;42;24
54021;PMS7003;39936;51.058;17.220;2023-01-23T21:06:22;75;53;32
54021;PMS7003;39936;51.058;17.220;2023-01-23T21:09:31;67;47;27
54021;PMS7003;39936;51.058;17.220;2023-01-23T21:12:42;71;54;32
54021;PMS7003;39936;51.058;17.220;2023-01-23T21:20:53;63;48;29
54021;PMS7003;39936;51.058;17.220;2023-01-23T21:24:03;71;53;31
54021;PMS7003;39936;51.058;17.220;2023-01-23T21:27:22;63;48;28
54021;PMS7003;39936;51.058;17.220;2023-01-23T21:30:46;71;50;27
54021;PMS7003;39936;51.058;17.220;2023-01-23T21:34:34;65;49;29
54021;PMS7003;39936;51.058;17.220;2023-01-23T21:37:58;72;54;33
54021;PMS7003;39936;51.058;17.220;2023-01-23T21:41:05;63;45;27
54021;PMS7003;39936;51.058;17.220;2023-01-23T21:44:17;63;46;28
54021;PMS7003;39936;51.058;17.220;2023-01-23T21:47:51;61;47;27
54021;PMS7003;39936;51.058;17.220;2023-01-23T21:51:12;67;47;27
54021;PMS7003;39936;51.058;17.220;2023-01-23T21:54:31;66;47;28
54021;PMS7003;39936;51.058;17.220;2023-01-23T21:57:58;50;40;21
54021;PMS7003;39936;51.058;17.220;2023-01-23T22:01:18;67;47;28
54021;PMS7003;39936;51.058;17.220;2023-01-23T22:04:35;61;44;27
54021;PMS7003;39936;51.058;17.220;2023-01-23T22:07:58;68;47;27
54021;PMS7003;39936;51.058;17.220;2023-01-23T22:11:10;68;48;29
54021;PMS7003;39936;51.058;17.220;2023-01-23T22:14:34;67;46;24
54021;PMS7003;39936;51.058;17.220;2023-01-23T22:17:46;65;49;29
54021;PMS7003;39936;51.058;17.220;2023-01-23T22:21:30;73;53;31
54021;PMS7003;39936;51.058;17.220;2023-01-23T22:24:55;63;48;28
54021;PMS7003;39936;51.058;17.220;2023-01-23T22:28:43;70;48;29
54021;PMS7003;39936;51.058;17.220;2023-01-23T22:32:44;63;48;27
54021;PMS7003;39936;51.058;17.220;2023-01-23T22:35:56;73;53;31
54021;PMS7003;39936;51.058;17.220;2023-01-23T22:39:04;67;50;30
54021;PMS7003;39936;51.058;17.220;2023-01-23T22:42:28;67;52;28
54021;PMS7003;39936;51.058;17.220;2023-01-23T22:49:46;64;48;29
54021;PMS7003;39936;51.058;17.220;2023-01-23T22:52:54;63;44;26
54021;PMS7003;39936;51.058;17.220;2023-01-23T22:56:05;57;45;27
54021;PMS7003;39936;51.058;17.220;2023-01-23T22:59:29;66;48;29
54021;PMS7003;39936;51.058;17.220;2023-01-23T23:02:51;66;48;30
54021;PMS7003;39936;51.058;17.220;2023-01-23T23:05:59;67;52;30
54021;PMS7003;39936;51.058;17.220;2023-01-23T23:09:10;66;47;28
54021;PMS7003;39936;51.058;17.220;2023-01-23T23:12:49;64;49;28
54021;PMS7003;39936;51.058;17.220;2023-01-23T23:16:06;68;51;30
54021;PMS7003;39936;51.058;17.220;2023-01-23T23:19:13;60;42;26
54021;PMS7003;39936;51.058;17.220;2023-01-23T23:22:26;64;47;28
54021;PMS7003;39936;51.058;17.220;2023-01-23T23:26:16;60;46;27
54021;PMS7003;39936;51.058;17.220;2023-01-23T23:29:26;71;51;29
54021;PMS7003;39936;51.058;17.220;2023-01-23T23:33:07;66;49;28
54021;PMS7003;39936;51.058;17.220;2023-01-23T23:36:31;61;44;26
54021;PMS7003;39936;51.058;17.220;2023-01-23T23:39:58;65;47;28
54021;PMS7003;39936;51.058;17.220;2023-01-23T23:43:11;66;50;28
54021;PMS7003;39936;51.058;17.220;2023-01-23T23:46:27;67;49;29
54021;PMS7003;39936;51.058;17.220;2023-01-23T23:49:34;45;37;23
54021;PMS7003;39936;51.058;17.220;2023-01-23T23:52:45;71;51;29
54021;PMS7003;39936;51.058;17.220;2023-01-23T23:56:04;61;45;28
54021;PMS7003;39936;51.058;17.220;2023-01-23T23:59:30;63;49;29
